createdAt,value
2019-01-16T00:02:27.636Z,7.41
2019-01-16T00:05:14.454Z,7.42
2019-01-16T00:07:48.331Z,7.38
2019-01-16T00:10:35.534Z,7.41
2019-01-16T00:13:06.536Z,7.43
2019-01-16T00:15:37.481Z,7.43
2019-01-16T00:18:16.999Z,7.45
2019-01-16T00:20:58.673Z,7.45
2019-01-16T00:23:32.440Z,7.48
2019-01-16T00:26:12.421Z,7.48
2019-01-16T00:28:49.221Z,7.57
2019-01-16T00:31:22.957Z,7.50
2019-01-16T00:33:56.755Z,7.50
2019-01-16T00:36:27.758Z,7.53
2019-01-16T00:39:07.472Z,7.55
2019-01-16T00:41:38.430Z,7.63
2019-01-16T00:44:18.099Z,7.63
2019-01-16T00:46:51.859Z,7.59
2019-01-16T00:49:29.014Z,7.56
2019-01-16T00:52:05.932Z,7.65
2019-01-16T00:54:39.806Z,7.65
2019-01-16T00:57:26.831Z,7.48
2019-01-16T01:00:01.016Z,7.55
2019-01-16T01:02:34.452Z,7.56
2019-01-16T01:05:22.154Z,7.56
2019-01-16T01:08:09.444Z,7.62
2019-01-16T01:10:43.371Z,7.62
2019-01-16T01:13:25.988Z,7.68
2019-01-16T01:15:59.859Z,7.72
2019-01-16T01:18:41.012Z,7.65
2019-01-16T01:21:18.433Z,7.65
2019-01-16T01:24:05.755Z,7.52
2019-01-16T01:26:52.841Z,7.52
2019-01-16T01:29:26.608Z,7.01
2019-01-16T01:32:00.583Z,7.01
2019-01-16T01:34:37.438Z,6.89
2019-01-16T01:37:14.316Z,6.85
2019-01-16T01:39:47.965Z,6.91
2019-01-16T01:42:24.617Z,7.00
2019-01-16T01:45:07.623Z,7.00
2019-01-16T01:47:41.144Z,7.12
2019-01-16T01:50:30.942Z,6.82
2019-01-16T01:53:18.223Z,6.74
2019-01-16T01:55:51.842Z,6.67
2019-01-16T01:58:28.212Z,6.69
2019-01-16T02:01:14.119Z,6.71
2019-01-16T02:03:51.094Z,6.81
2019-01-16T02:06:24.903Z,6.81
2019-01-16T02:08:58.623Z,6.84
2019-01-16T02:11:32.686Z,6.92
2019-01-16T02:14:03.912Z,6.97
2019-01-16T02:16:34.957Z,6.98
2019-01-16T02:19:09.555Z,7.06
2019-01-16T02:21:46.344Z,7.28
2019-01-16T02:24:33.690Z,7.28
2019-01-16T02:27:07.989Z,7.35
2019-01-16T02:29:47.619Z,7.05
2019-01-16T02:32:36.504Z,7.25
2019-01-16T02:35:10.560Z,6.90
2019-01-16T02:37:41.556Z,6.95
2019-01-16T02:40:19.190Z,7.08
2019-01-16T02:42:52.631Z,7.08
2019-01-16T02:45:23.931Z,6.85
2019-01-16T02:48:10.871Z,6.85
2019-01-16T02:50:41.817Z,6.84
2019-01-16T02:53:15.356Z,6.84
2019-01-16T02:56:02.125Z,6.97
2019-01-16T02:58:35.782Z,7.18
2019-01-16T03:01:06.850Z,7.00
2019-01-16T03:03:41.158Z,6.78
2019-01-16T03:06:27.378Z,6.74
2019-01-16T03:08:58.320Z,6.99
2019-01-16T03:11:29.239Z,6.99
2019-01-16T03:14:06.412Z,6.99
2019-01-16T03:16:40.306Z,6.89
2019-01-16T03:19:16.693Z,6.89
2019-01-16T03:21:47.607Z,6.93
2019-01-16T03:24:27.326Z,7.13
2019-01-16T03:27:12.995Z,7.30
2019-01-16T03:29:49.826Z,7.30
2019-01-16T03:32:20.951Z,7.32
2019-01-16T03:35:06.926Z,7.32
2019-01-16T03:37:40.354Z,7.29
2019-01-16T03:40:21.503Z,7.29
2019-01-16T03:42:58.417Z,7.33
2019-01-16T03:45:29.373Z,7.42
2019-01-16T03:48:03.195Z,7.42
2019-01-16T03:50:37.177Z,7.33
2019-01-16T03:53:08.160Z,7.37
2019-01-16T03:55:45.104Z,7.16
2019-01-16T03:58:31.003Z,6.98
2019-01-16T04:01:01.961Z,6.98
2019-01-16T04:03:41.752Z,6.86
2019-01-16T04:06:24.142Z,6.93
2019-01-16T04:08:58.051Z,6.83
2019-01-16T04:11:37.630Z,7.01
2019-01-16T04:14:20.841Z,6.93
2019-01-16T04:17:00.814Z,6.89
2019-01-16T04:19:37.688Z,6.92
2019-01-16T04:22:15.030Z,6.90
2019-01-16T04:25:01.784Z,7.13
2019-01-16T04:27:50.745Z,6.93
2019-01-16T04:30:33.577Z,6.93
2019-01-16T04:33:22.751Z,6.87
2019-01-16T04:36:05.319Z,6.87
2019-01-16T04:38:39.219Z,6.86
2019-01-16T04:41:10.176Z,6.81
2019-01-16T04:43:41.100Z,6.76
2019-01-16T04:46:24.154Z,6.82
2019-01-16T04:49:13.071Z,6.89
2019-01-16T04:52:00.538Z,6.95
2019-01-16T04:54:31.473Z,7.08
2019-01-16T04:57:08.149Z,6.82
2019-01-16T04:59:41.758Z,6.78
2019-01-16T05:02:12.697Z,6.79
2019-01-16T05:04:54.405Z,6.90
2019-01-16T05:07:34.615Z,6.90
2019-01-16T05:10:08.085Z,6.85
2019-01-16T05:12:39.021Z,6.96
2019-01-16T05:15:28.570Z,6.93
2019-01-16T05:18:05.225Z,6.98
2019-01-16T05:20:36.178Z,6.79
2019-01-16T05:23:12.832Z,6.79
2019-01-16T05:25:59.592Z,6.88
2019-01-16T05:28:30.524Z,6.88
2019-01-16T05:31:04.442Z,6.85
2019-01-16T05:33:50.414Z,6.87
2019-01-16T05:36:21.473Z,6.82
2019-01-16T05:39:10.233Z,6.93
2019-01-16T05:41:47.157Z,6.87
2019-01-16T05:44:18.099Z,6.84
2019-01-16T05:46:57.893Z,6.92
2019-01-16T05:49:35.032Z,7.01
2019-01-16T05:52:22.320Z,7.16
2019-01-16T05:55:11.158Z,7.15
2019-01-16T05:57:50.890Z,7.15
2019-01-16T06:00:24.222Z,7.15
2019-01-16T06:03:11.551Z,7.20
2019-01-16T06:05:42.474Z,7.20
2019-01-16T06:08:13.414Z,7.23
2019-01-16T06:10:44.356Z,7.23
2019-01-16T06:13:18.004Z,7.23
2019-01-16T06:15:48.938Z,7.20
2019-01-16T06:18:37.720Z,7.16
2019-01-16T06:21:08.639Z,7.19
2019-01-16T06:23:48.490Z,7.15
2019-01-16T06:26:22.123Z,7.10
2019-01-16T06:29:09.535Z,7.20
2019-01-16T06:31:40.472Z,7.16
2019-01-16T06:34:17.126Z,6.96
2019-01-16T06:36:48.064Z,7.10
2019-01-16T06:39:25.194Z,7.00
2019-01-16T06:42:04.840Z,6.94
2019-01-16T06:44:44.688Z,6.99
2019-01-16T06:47:15.625Z,6.84
2019-01-16T06:49:52.527Z,6.87
2019-01-16T06:52:23.555Z,6.92
2019-01-16T06:54:54.472Z,6.93
2019-01-16T06:57:25.406Z,6.88
2019-01-16T07:00:02.289Z,6.85
2019-01-16T07:02:49.695Z,6.85
2019-01-16T07:05:36.765Z,6.91
2019-01-16T07:08:19.826Z,7.00
2019-01-16T07:10:56.220Z,6.85
2019-01-16T07:13:39.406Z,6.99
2019-01-16T07:16:13.248Z,6.94
2019-01-16T07:18:53.410Z,6.95
2019-01-16T07:21:27.605Z,6.75
2019-01-16T07:23:58.548Z,6.75
2019-01-16T07:26:35.273Z,6.96
2019-01-16T07:29:09.679Z,6.90
2019-01-16T07:31:46.473Z,6.71
2019-01-16T07:34:20.397Z,6.84
2019-01-16T07:37:00.644Z,6.69
2019-01-16T07:39:43.222Z,6.52
2019-01-16T07:42:32.263Z,6.47
2019-01-16T07:45:08.790Z,6.56
2019-01-16T07:47:40.093Z,6.58
2019-01-16T07:50:23.474Z,6.52
2019-01-16T07:53:06.903Z,6.39
2019-01-16T07:55:37.855Z,6.36
2019-01-16T07:58:08.960Z,6.42
2019-01-16T08:00:39.918Z,6.34
2019-01-16T08:03:13.811Z,6.37
2019-01-16T08:06:00.844Z,6.33
2019-01-16T08:08:43.987Z,6.31
2019-01-16T08:11:31.036Z,6.36
2019-01-16T08:14:01.964Z,6.27
2019-01-16T08:16:33.582Z,6.30
2019-01-16T08:19:04.603Z,6.34
2019-01-16T08:21:41.460Z,6.54
2019-01-16T08:24:15.409Z,6.59
2019-01-16T08:26:46.412Z,6.75
2019-01-16T08:29:17.326Z,6.58
2019-01-16T08:32:03.672Z,6.71
2019-01-16T08:34:47.059Z,6.68
2019-01-16T08:37:17.991Z,6.92
2019-01-16T08:40:04.565Z,6.95
2019-01-16T08:42:47.647Z,6.95
2019-01-16T08:45:27.466Z,6.66
2019-01-16T08:48:14.582Z,6.66
2019-01-16T08:50:57.676Z,6.61
2019-01-16T08:53:43.562Z,6.91
2019-01-16T08:56:26.493Z,6.86
2019-01-16T08:58:57.436Z,6.89
2019-01-16T09:01:34.458Z,7.18
2019-01-16T09:04:06.024Z,7.26
2019-01-16T09:06:37.204Z,6.63
2019-01-16T09:09:10.454Z,6.63
2019-01-16T09:11:57.960Z,6.65
2019-01-16T09:14:41.001Z,6.78
2019-01-16T09:17:26.897Z,6.58
2019-01-16T09:19:57.885Z,6.56
2019-01-16T09:22:34.715Z,6.83
2019-01-16T09:25:07.470Z,6.75
2019-01-16T09:27:38.530Z,6.58
2019-01-16T09:30:18.951Z,6.50
2019-01-16T09:32:56.048Z,6.86
2019-01-16T09:35:26.979Z,6.90
2019-01-16T09:38:06.761Z,6.84
2019-01-16T09:40:49.874Z,6.49
2019-01-16T09:43:20.869Z,6.49
2019-01-16T09:46:01.008Z,6.37
2019-01-16T09:48:34.675Z,6.45
2019-01-16T09:51:24.408Z,6.45
2019-01-16T09:53:55.340Z,6.60
2019-01-16T09:56:28.972Z,6.38
2019-01-16T09:58:59.913Z,6.41
2019-01-16T10:01:47.456Z,6.34
2019-01-16T10:04:18.401Z,6.45
2019-01-16T10:06:49.323Z,6.16
2019-01-16T10:09:26.134Z,6.20
2019-01-16T10:12:09.253Z,6.12
2019-01-16T10:14:42.868Z,6.25
2019-01-16T10:17:13.959Z,6.15
2019-01-16T10:19:47.944Z,6.14
2019-01-16T10:22:27.894Z,6.10
2019-01-16T10:24:58.907Z,6.07
2019-01-16T10:27:32.541Z,6.13
2019-01-16T10:30:21.545Z,6.14
2019-01-16T10:32:52.458Z,6.13
2019-01-16T10:35:29.384Z,6.22
2019-01-16T10:38:03.369Z,6.17
2019-01-16T10:40:43.313Z,6.03
2019-01-16T10:43:14.296Z,6.18
2019-01-16T10:45:56.834Z,6.23
2019-01-16T10:48:30.618Z,6.13
2019-01-16T10:51:07.498Z,6.08
2019-01-16T10:53:50.632Z,6.09
2019-01-16T10:56:36.704Z,6.01
2019-01-16T10:59:10.798Z,6.06
2019-01-16T11:01:53.931Z,6.09
2019-01-16T11:04:41.092Z,6.00
2019-01-16T11:07:44.264Z,6.07
2019-01-16T11:10:27.226Z,6.17
2019-01-16T11:13:12.797Z,6.09
2019-01-16T11:15:43.709Z,6.01
2019-01-16T11:18:30.562Z,6.02
2019-01-16T11:21:01.548Z,5.98
2019-01-16T11:23:49.154Z,5.99
2019-01-16T11:26:20.492Z,6.01
2019-01-16T11:29:06.302Z,6.07
2019-01-16T11:31:40.137Z,5.99
2019-01-16T11:34:11.067Z,5.97
2019-01-16T11:36:44.691Z,6.15
2019-01-16T11:39:18.751Z,6.24
2019-01-16T11:41:49.672Z,6.29
2019-01-16T11:44:20.623Z,6.25
2019-01-16T11:46:51.568Z,6.23
2019-01-16T11:49:39.260Z,6.21
2019-01-16T11:52:10.262Z,6.17
2019-01-16T11:54:41.186Z,6.14
2019-01-16T11:57:12.109Z,6.10
2019-01-16T11:59:45.972Z,6.11
2019-01-16T12:02:16.907Z,6.04
2019-01-16T12:04:53.411Z,6.09
2019-01-16T12:07:39.694Z,6.03
2019-01-16T12:10:29.608Z,6.19
2019-01-16T12:13:03.203Z,6.18
2019-01-16T12:15:34.151Z,6.17
2019-01-16T12:18:10.865Z,6.17
2019-01-16T12:20:41.807Z,6.30
2019-01-16T12:23:15.555Z,6.31
2019-01-16T12:25:48.969Z,6.38
2019-01-16T12:28:19.893Z,6.25
2019-01-16T12:30:50.828Z,6.24
2019-01-16T12:33:37.987Z,6.30
2019-01-16T12:36:12.294Z,6.28
2019-01-16T12:38:43.214Z,6.31
2019-01-16T12:41:19.967Z,6.42
2019-01-16T12:43:53.632Z,6.41
2019-01-16T12:46:27.711Z,6.46
2019-01-16T12:48:59.726Z,6.34
2019-01-16T12:51:47.177Z,6.44
2019-01-16T12:54:21.040Z,6.50
2019-01-16T12:57:10.206Z,6.59
2019-01-16T12:59:47.007Z,6.41
2019-01-16T13:02:34.007Z,6.47
2019-01-16T13:05:17.088Z,6.46
2019-01-16T13:07:50.772Z,6.58
2019-01-16T13:10:39.763Z,6.53
2019-01-16T13:13:19.621Z,6.51
2019-01-16T13:15:59.565Z,6.48
2019-01-16T13:18:46.631Z,6.64
2019-01-16T13:21:20.683Z,6.49
2019-01-16T13:23:54.067Z,6.65
2019-01-16T13:26:43.027Z,6.67
2019-01-16T13:29:16.638Z,6.67
2019-01-16T13:31:47.560Z,6.60
2019-01-16T13:34:18.487Z,6.54
2019-01-16T13:36:49.411Z,6.57
2019-01-16T13:39:20.348Z,6.67
2019-01-16T13:41:51.267Z,7.02
2019-01-16T13:44:38.405Z,6.89
2019-01-16T13:47:09.455Z,6.76
2019-01-16T13:49:43.189Z,6.93
2019-01-16T13:52:23.409Z,6.83
2019-01-16T13:54:57.400Z,6.95
2019-01-16T13:57:28.333Z,6.86
2019-01-16T13:59:59.288Z,6.88
2019-01-16T14:02:41.035Z,6.82
2019-01-16T14:05:15.136Z,6.96
2019-01-16T14:08:01.204Z,6.96
2019-01-16T14:10:32.142Z,7.03
2019-01-16T14:13:03.122Z,7.00
2019-01-16T14:15:49.069Z,7.00
2019-01-16T14:18:20.083Z,6.97
2019-01-16T14:20:51.030Z,6.92
2019-01-16T14:23:38.269Z,6.92
2019-01-16T14:26:12.488Z,6.86
2019-01-16T14:28:46.398Z,6.88
2019-01-16T14:31:20.016Z,6.77
2019-01-16T14:34:03.234Z,6.71
2019-01-16T14:36:37.050Z,6.71
2019-01-16T14:39:10.107Z,6.82
2019-01-16T14:41:41.203Z,6.70
2019-01-16T14:44:12.374Z,6.87
2019-01-16T14:46:43.319Z,6.91
2019-01-16T14:49:29.404Z,6.74
2019-01-16T14:52:09.343Z,6.69
2019-01-16T14:54:43.229Z,6.67
2019-01-16T14:57:14.291Z,6.83
2019-01-16T14:59:53.976Z,6.70
2019-01-16T15:02:24.995Z,6.91
2019-01-16T15:05:05.236Z,6.79
2019-01-16T15:07:40.067Z,6.61
2019-01-16T15:10:28.932Z,6.52
2019-01-16T15:13:10.695Z,6.76
2019-01-16T15:15:46.544Z,6.56
2019-01-16T15:18:24.794Z,6.60
2019-01-16T15:21:02.762Z,6.60
2019-01-16T15:23:51.150Z,6.35
2019-01-16T15:26:35.385Z,6.45
2019-01-16T15:29:10.317Z,6.24
2019-01-16T15:31:48.745Z,6.34
2019-01-16T15:34:23.829Z,6.18
2019-01-16T15:36:56.148Z,6.20
2019-01-16T15:39:44.075Z,6.35
2019-01-16T15:42:22.582Z,6.34
2019-01-16T15:45:13.400Z,6.20
2019-01-16T15:47:45.351Z,6.37
2019-01-16T15:50:24.089Z,6.04
2019-01-16T15:53:04.929Z,5.93
2019-01-16T15:55:53.780Z,6.09
2019-01-16T15:58:32.017Z,6.14
2019-01-16T16:01:16.975Z,6.19
2019-01-16T16:04:04.528Z,6.28
2019-01-16T16:06:47.237Z,6.18
2019-01-16T16:09:18.155Z,6.15
2019-01-16T16:11:49.290Z,6.17
2019-01-16T16:14:38.076Z,6.29
2019-01-16T16:17:14.782Z,6.24
2019-01-16T16:19:51.419Z,6.06
2019-01-16T16:22:25.022Z,5.90
2019-01-16T16:25:01.753Z,5.94
2019-01-16T16:27:49.997Z,5.86
2019-01-16T16:30:39.553Z,5.76
2019-01-16T16:33:10.489Z,5.78
2019-01-16T16:35:47.161Z,5.82
2019-01-16T16:38:18.096Z,5.59
2019-01-16T16:40:58.140Z,5.72
2019-01-16T16:43:32.066Z,5.63
2019-01-16T16:46:19.113Z,5.69
2019-01-16T16:48:53.985Z,5.87
2019-01-16T16:51:33.911Z,5.82
2019-01-16T16:54:21.196Z,5.56
2019-01-16T16:56:52.102Z,5.77
2019-01-16T16:59:29.271Z,5.80
2019-01-16T17:02:16.355Z,5.68
2019-01-16T17:05:02.653Z,5.73
2019-01-16T17:07:33.587Z,5.79
2019-01-16T17:10:07.556Z,5.78
2019-01-16T17:12:54.815Z,5.77
2019-01-16T17:15:41.824Z,5.83
2019-01-16T17:18:28.797Z,5.69
2019-01-16T17:21:15.779Z,5.57
2019-01-16T17:24:01.656Z,5.47
2019-01-16T17:26:32.675Z,5.47
2019-01-16T17:29:03.656Z,5.55
2019-01-16T17:31:46.451Z,5.54
2019-01-16T17:34:17.404Z,5.59
2019-01-16T17:36:48.428Z,5.58
2019-01-16T17:39:31.539Z,5.57
2019-01-16T17:42:05.389Z,5.60
2019-01-16T17:44:54.477Z,5.67
2019-01-16T17:47:28.685Z,5.86
2019-01-16T17:50:17.771Z,5.76
2019-01-16T17:53:04.137Z,5.69
2019-01-16T17:55:50.971Z,5.62
2019-01-16T17:58:24.963Z,5.76
2019-01-16T18:01:08.075Z,5.74
2019-01-16T18:03:42.107Z,5.66
2019-01-16T18:06:15.880Z,5.67
2019-01-16T18:08:52.904Z,5.67
2019-01-16T18:11:32.961Z,5.66
2019-01-16T18:14:12.883Z,5.69
2019-01-16T18:16:55.473Z,5.60
2019-01-16T18:19:29.117Z,5.63
2019-01-16T18:22:18.100Z,5.65
2019-01-16T18:24:51.813Z,5.68
2019-01-16T18:27:22.755Z,5.68
2019-01-16T18:30:10.270Z,5.71
2019-01-16T18:32:56.226Z,5.77
2019-01-16T18:35:30.097Z,5.71
2019-01-16T18:38:13.069Z,5.67
2019-01-16T18:40:56.236Z,5.67
2019-01-16T18:43:43.638Z,5.68
2019-01-16T18:46:17.569Z,5.63
2019-01-16T18:48:51.668Z,5.62
2019-01-16T18:51:25.276Z,5.60
2019-01-16T18:54:08.338Z,5.62
2019-01-16T18:56:39.283Z,5.64
2019-01-16T18:59:15.718Z,5.62
2019-01-16T19:01:55.651Z,5.69
2019-01-16T19:04:26.592Z,5.71
2019-01-16T19:07:12.773Z,5.61
2019-01-16T19:09:46.580Z,5.68
2019-01-16T19:12:35.816Z,5.62
2019-01-16T19:15:09.978Z,5.69
2019-01-16T19:17:43.869Z,5.53
2019-01-16T19:20:23.980Z,5.64
2019-01-16T19:23:03.904Z,5.60
2019-01-16T19:25:37.901Z,5.61
2019-01-16T19:28:11.851Z,5.71
2019-01-16T19:30:48.828Z,5.90
2019-01-16T19:33:22.705Z,6.18
2019-01-16T19:35:59.416Z,6.07
2019-01-16T19:38:45.272Z,6.22
2019-01-16T19:41:32.695Z,6.21
2019-01-16T19:44:06.691Z,6.27
2019-01-16T19:46:52.842Z,6.10
2019-01-16T19:49:35.928Z,6.09
2019-01-16T19:52:07.208Z,6.49
2019-01-16T19:54:46.876Z,6.63
2019-01-16T19:57:17.899Z,6.28
2019-01-16T19:59:54.561Z,6.35
2019-01-16T20:02:31.517Z,5.87
2019-01-16T20:05:05.250Z,5.94
2019-01-16T20:07:45.323Z,6.37
2019-01-16T20:10:19.425Z,6.55
2019-01-16T20:12:59.657Z,6.19
2019-01-16T20:15:42.894Z,6.56
2019-01-16T20:18:29.074Z,6.37
2019-01-16T20:21:16.192Z,6.24
2019-01-16T20:24:02.985Z,6.24
2019-01-16T20:26:43.067Z,6.11
2019-01-16T20:29:25.916Z,6.15
2019-01-16T20:32:02.491Z,6.10
2019-01-16T20:34:33.422Z,6.13
2019-01-16T20:37:16.116Z,6.13
2019-01-16T20:40:03.464Z,6.19
2019-01-16T20:42:46.095Z,6.23
2019-01-16T20:45:25.990Z,6.32
2019-01-16T20:47:59.712Z,6.21
2019-01-16T20:50:36.496Z,6.10
2019-01-16T20:53:17.439Z,6.18
2019-01-16T20:55:52.197Z,6.00
2019-01-16T20:58:26.048Z,6.10
2019-01-16T21:01:05.792Z,6.17
2019-01-16T21:03:45.894Z,6.24
2019-01-16T21:06:23.167Z,6.23
2019-01-16T21:09:09.999Z,6.19
2019-01-16T21:11:41.115Z,6.19
2019-01-16T21:14:14.988Z,6.36
2019-01-16T21:16:51.913Z,6.31
2019-01-16T21:19:39.360Z,6.26
2019-01-16T21:22:28.403Z,6.21
2019-01-16T21:25:16.268Z,6.15
2019-01-16T21:27:50.591Z,6.28
2019-01-16T21:30:36.819Z,6.22
2019-01-16T21:33:16.715Z,6.10
2019-01-16T21:36:03.884Z,6.11
2019-01-16T21:38:43.488Z,6.08
2019-01-16T21:41:14.436Z,6.17
2019-01-16T21:44:01.699Z,6.13
2019-01-16T21:46:41.209Z,6.05
2019-01-16T21:49:18.101Z,6.17
2019-01-16T21:51:52.210Z,6.09
2019-01-16T21:54:39.814Z,6.09
2019-01-16T21:57:27.183Z,6.07
2019-01-16T22:00:14.371Z,6.03
2019-01-16T22:02:45.442Z,6.05
2019-01-16T22:05:32.805Z,6.03
2019-01-16T22:08:20.162Z,6.01
2019-01-16T22:10:51.238Z,6.05
2019-01-16T22:13:28.000Z,6.02
2019-01-16T22:16:04.791Z,6.04
2019-01-16T22:18:38.763Z,6.11
2019-01-16T22:21:18.201Z,6.06
2019-01-16T22:23:52.245Z,6.06
2019-01-16T22:26:23.238Z,6.02
2019-01-16T22:29:10.062Z,6.01
2019-01-16T22:31:46.691Z,6.04
2019-01-16T22:34:33.799Z,6.05
2019-01-16T22:37:10.749Z,6.06
2019-01-16T22:39:57.726Z,6.07
2019-01-16T22:42:34.803Z,6.10
2019-01-16T22:45:23.762Z,6.10
2019-01-16T22:48:11.141Z,6.10
2019-01-16T22:50:54.543Z,6.15
2019-01-16T22:53:32.732Z,6.17
2019-01-16T22:56:21.792Z,6.24
2019-01-16T22:59:12.603Z,6.17
2019-01-16T23:01:47.399Z,6.18
2019-01-16T23:04:34.609Z,6.20
2019-01-16T23:07:08.331Z,6.16
2019-01-16T23:09:55.361Z,6.17
2019-01-16T23:12:41.169Z,6.30
2019-01-16T23:15:30.801Z,6.36
2019-01-16T23:18:07.493Z,6.28
2019-01-16T23:20:38.432Z,6.33
2019-01-16T23:23:21.373Z,6.31
2019-01-16T23:26:07.678Z,6.32
2019-01-16T23:28:41.280Z,6.44
2019-01-16T23:31:12.289Z,6.32
2019-01-16T23:33:45.941Z,6.45
2019-01-16T23:36:33.243Z,6.37
2019-01-16T23:39:06.866Z,6.45
2019-01-16T23:41:40.543Z,6.57
2019-01-16T23:44:20.749Z,6.62
2019-01-16T23:47:00.577Z,6.60
2019-01-16T23:49:49.856Z,6.62
2019-01-16T23:52:20.785Z,6.60
2019-01-16T23:54:51.696Z,6.64
2019-01-16T23:57:22.640Z,6.58
2019-01-16T23:59:53.543Z,6.65
